Home > Products > Valid Products > TAF

000
FTUS43 KSGF 250500
TAFSGF
TAF
KSGF 250520Z 2506/2606 19006KT P6SM SKC
      TEMPO 2510/2513 5SM BR SKC
     FM251400 26007KT P6SM SKC=



000
FTUS43 KSGF 250500
TAFJLN
TAF
KJLN 250520Z 2506/2606 19006KT P6SM SKC
      TEMPO 2510/2513 5SM BR SKC
     FM251400 25007KT P6SM SKC=



000
FTUS43 KSGF 242300
TAFJLN
TAF
KJLN 242320Z 2500/2524 21005KT P6SM BKN250
     FM250800 VRB04KT 5SM BR SKC
      TEMPO 2510/2513 2SM BR SKC
     FM251400 23007KT P6SM SKC=



000
FTUS43 KSGF 242300
TAFSGF
TAF
KSGF 242320Z 2500/2524 22005KT P6SM BKN250
     FM250800 VRB04KT 5SM BR SKC
      TEMPO 2510/2513 2SM BR SKC
     FM251400 24007KT P6SM SKC=



000
FTUS43 KSGF 241700
TAFSGF
TAF
KSGF 241720Z 2418/2518 22010KT P6SM SCT040 BKN250
     FM250000 20006KT P6SM SKC
     FM251500 24008KT P6SM SKC=



000
FTUS43 KSGF 241700
TAFJLN
TAF
KJLN 241720Z 2418/2518 22012KT P6SM BKN250
     FM242300 20006KT P6SM SKC
     FM251500 23008KT P6SM SKC=



000
FTUS43 KSGF 241500 AAB
TAFJLN
TAF AMD
KJLN 241501Z 2415/2512 21012KT P6SM BKN250
     FM250000 20005KT P6SM SKC=



000
FTUS43 KSGF 241300 AAA
TAFSGF
TAF AMD
KSGF 241341Z 2414/2512 VRB05KT P6SM BKN035
     FM241600 21008KT P6SM SKC=



000
FTUS43 KSGF 241300 AAA
TAFJLN
TAF AMD
KJLN 241340Z 2414/2512 18006KT P6SM SCT045
     FM241600 21010KT P6SM SKC=



000
FTUS43 KSGF 241100
TAFSGF
TAF
KSGF 241120Z 2412/2512 19005KT 6SM BR SCT015 SCT250
      TEMPO 2412/2414 3SM BR
     FM241600 21008KT P6SM SKC=



000
FTUS43 KSGF 241100
TAFJLN
TAF
KJLN 241120Z 2412/2512 17005KT 6SM BR FEW045 SCT250
      TEMPO 2412/2414 4SM BR
     FM241600 21010KT P6SM SKC=



000
FTUS43 KSGF 240800 AAA
TAFSGF
TAF AMD
KSGF 240829Z 2408/2506 19005KT 3SM BR FEW250
      TEMPO 2408/2411 1/2SM FG
     FM241100 19005KT 3SM BR SCT015
      TEMPO 2411/2414 1/2SM FG
     FM241600 21007KT P6SM SKC=



000
FTUS43 KSGF 240800 AAA
TAFJLN
TAF AMD
KJLN 240818Z 2408/2506 17005KT 4SM BR FEW045
      TEMPO 2409/2413 1SM BR
     FM241600 22007KT P6SM SKC=



000
FTUS43 KSGF 240500
TAFSGF
TAF
KSGF 240520Z 2406/2506 20004KT 2SM BR FEW003 SCT015
      TEMPO 2406/2410 1/2SM FG
     FM241000 VRB03KT 1SM BR FEW003 SCT012
      TEMPO 2410/2413 1/4SM FG
     FM241400 21005KT 3SM BR SCT010
     FM241600 21007KT P6SM SKC=



000
FTUS43 KSGF 240500
TAFJLN
TAF
KJLN 240520Z 2406/2506 VRB04KT 2SM BR FEW003 SCT015
      TEMPO 2406/2410 1/2SM FG
     FM241000 VRB03KT 1SM BR FEW003 SCT012
      TEMPO 2410/2412 1/2SM FG
     FM241400 22005KT 3SM BR SCT010
     FM241600 22007KT P6SM SKC=



000
FTUS43 KSGF 240400 AAB
TAFJLN
TAF AMD
KJLN 240400Z 2404/2424 19004KT 3SM BR SCT010
      TEMPO 2404/2406 1SM BR SCT010
     FM240600 20003KT 1SM BR SCT010
     FM241400 20007KT P6SM SKC=



000
FTUS43 KSGF 240400 AAB
TAFJLN
TAF AMD
KJLN 240400Z 2404/2424 19004KT 3SM BR SCT010
      TEMPO 2404/2406 1SM BR SCT010
     FM240600 20003KT 1SM BR SCT010
     FM241400 20007KT P6SM SKC=



000
FTUS43 KSGF 240300 AAA
TAFSGF
TAF AMD
KSGF 240355Z 2404/2424 20004KT 1/2SM FG FEW007 OVC015
     FM241500 21007KT P6SM SKC=



000
FTUS43 KSGF 240300 AAA
TAFSGF
TAF AMD
KSGF 240355Z 2404/2424 20004KT 1/2SM FG FEW007 OVC015
     FM241500 21007KT P6SM SKC=



000
FTUS43 KSGF 240100 AAA
TAFJLN
TAF AMD
KJLN 240156Z 2402/2424 17005KT 6SM BR OVC012
     FM240500 19004KT 3SM BR SCT010
     FM241400 20007KT P6SM SKC=



000
FTUS43 KSGF 240100 AAA
TAFJLN
TAF AMD
KJLN 240156Z 2402/2424 17005KT 6SM BR OVC012
     FM240500 19004KT 3SM BR SCT010
     FM241400 20007KT P6SM SKC=



000
FTUS43 KSGF 240100 AAA
TAFSGF
TAF AMD
KSGF 240126Z 2401/2424 18005KT 5SM BR SCT025 BKN050
     FM240700 20004KT 2SM BR FEW007 OVC015
     FM241500 21007KT P6SM SKC=



000
FTUS43 KSGF 232300
TAFJLN
TAF
KJLN 232320Z 2400/2424 17005KT P6SM OVC012
     FM240500 19004KT 4SM BR SCT010
     FM241400 20007KT P6SM SKC=



000
FTUS43 KSGF 232300
TAFSGF
TAF
KSGF 232320Z 2400/2424 18005KT P6SM SCT025 BKN050
     FM240700 20004KT 3SM BR FEW007 OVC015
     FM241500 21007KT P6SM SKC=



000
FTUS43 KSGF 232000 AAA
TAFSGF
TAF AMD
KSGF 232005Z 2320/2418 19006KT P6SM SCT010 BKN035 OVC050
      TEMPO 2320/2321 BKN009
     FM240000 18005KT P6SM SCT025 BKN050
     FM240800 20004KT 4SM BR FEW007
     FM241500 20007KT P6SM SKC=



000
FTUS43 KSGF 232000 AAA
TAFJLN
TAF AMD
KJLN 232003Z 2320/2418 19008KT P6SM BKN010 BKN025 OVC050
     FM232200 17005KT P6SM SCT025 BKN050
     FM240700 19004KT 4SM BR FEW010
     FM241500 20007KT P6SM SKC=



000
FTUS43 KSGF 231900 AAA
TAFSGF
TAF AMD
KSGF 231924Z 2319/2418 17008KT P6SM SCT025 BKN050 OVC070
     FM232000 19006KT P6SM SCT010 BKN025 OVC050
     FM240000 18005KT P6SM SCT025 BKN050
     FM240800 20004KT 4SM BR FEW007
     FM241500 20007KT P6SM SKC=



000
FTUS43 KSGF 231900 AAA
TAFSGF
TAF AMD
KSGF 231924Z 2319/2418 17008KT P6SM SCT025 BKN050 OVC070
     FM232000 19006KT P6SM SCT010 BKN025 OVC050
     FM240000 18005KT P6SM SCT025 BKN050
     FM240800 20004KT 4SM BR FEW007
     FM241500 20007KT P6SM SKC=



000
FTUS43 KSGF 231700
TAFSGF
TAF
KSGF 231720Z 2318/2418 17008KT P6SM SCT025 BKN050 OVC070
      TEMPO 2318/2320 -SHRA SCT010 BKN025 OVC050
     FM232000 19006KT P6SM SCT010 BKN025 OVC050
     FM240000 18005KT P6SM SCT025 BKN050
     FM240800 20004KT 4SM BR FEW007
     FM241500 20007KT P6SM SKC=



000
FTUS43 KSGF 231700
TAFJLN
TAF
KJLN 231720Z 2318/2418 20008KT P6SM BKN010 OVC050
     FM231900 19008KT P6SM SCT010 BKN025 OVC050
     FM232200 17005KT P6SM SCT025 BKN050
     FM240700 19004KT 4SM BR FEW010
     FM241500 20007KT P6SM SKC=



000
FTUS43 KSGF 231700 AAB
TAFJLN
TAF AMD
KJLN 231702Z 2317/2412 18005KT P6SM VCSH BKN070
      TEMPO 2317/2318 BKN010 OVC050
     FM231800 20006KT P6SM SCT010 BKN050=



000
FTUS43 KSGF 231700 AAB
TAFJLN
TAF AMD
KJLN 231702Z 2317/2412 18005KT P6SM VCSH BKN070
      TEMPO 2317/2318 BKN010 OVC050
     FM231800 20006KT P6SM SCT010 BKN050=



000
FTUS43 KSGF 231500 AAA
TAFJLN
TAF AMD
KJLN 231502Z 2315/2412 18005KT P6SM VCSH BKN070
      TEMPO 2315/2317 -SHRA BKN015 OVC060
     FM231800 20006KT P6SM BKN060 BKN250=



000
FTUS43 KSGF 231400 AAA
TAFSGF
TAF AMD
KSGF 231410Z 2314/2412 17010KT P6SM VCSH BKN060
      TEMPO 2314/2316 -SHRA SCT050 BKN100
     FM231900 21006KT P6SM BKN100 BKN250=



000
FTUS43 KSGF 231400 AAA
TAFSGF
TAF AMD
KSGF 231410Z 2314/2412 17010KT P6SM VCSH BKN060
      TEMPO 2314/2316 -SHRA SCT050 BKN100
     FM231900 21006KT P6SM BKN100 BKN250=



000
FTUS43 KSGF 231100
TAFJLN
TAF
KJLN 231120Z 2312/2412 18005KT P6SM VCSH BKN110
     FM231800 20006KT P6SM BKN060 BKN250=



000
FTUS43 KSGF 231100
TAFSGF
TAF
KSGF 231120Z 2312/2412 16008KT P6SM VCSH BKN060
     FM231900 21006KT P6SM BKN100 BKN250=



000
FTUS43 KSGF 230500
TAFJLN
TAF
KJLN 230520Z 2306/2406 14006KT P6SM SCT250
     FM231100 17006KT P6SM VCSH BKN070
     FM231800 22008KT P6SM SCT150=



000
FTUS43 KSGF 230500
TAFSGF
TAF
KSGF 230520Z 2306/2406 13008KT P6SM SCT250
     FM231200 17008KT P6SM BKN100
     FM231900 22008KT P6SM SCT150=



000
FTUS43 KSGF 222300
TAFJLN
TAF
KJLN 222320Z 2300/2324 14006KT P6SM SCT250
     FM231100 17006KT P6SM BKN100 PROB30 2312/2318 19008KT P6SM
      -SHRA BKN035 OVC050
     FM231800 22008KT P6SM SCT150=



000
FTUS43 KSGF 222300
TAFSGF
TAF
KSGF 222320Z 2300/2324 13008KT P6SM SCT250
     FM231200 17008KT P6SM BKN100
     FM231900 22008KT P6SM SCT150=



000
FTUS43 KSGF 222000 AAA
TAFSGF
TAF AMD
KSGF 222027Z 2220/2318 13008KT P6SM SCT250
     FM231200 17008KT P6SM BKN100=



000
FTUS43 KSGF 222000 AAA
TAFSGF
TAF AMD
KSGF 222027Z 2220/2318 13008KT P6SM SCT250
     FM231200 17008KT P6SM BKN100=



000
FTUS43 KSGF 221700
TAFSGF
TAF
KSGF 221720Z 2218/2318 16012KT P6SM SCT050
     FM222300 14007KT P6SM SCT250
     FM231200 17008KT P6SM BKN100=



000
FTUS43 KSGF 221700
TAFJLN
TAF
KJLN 221720Z 2218/2318 15010KT P6SM SCT050
     FM222300 14006KT P6SM SCT250
     FM231100 17006KT P6SM BKN100 PROB30 2312/2318 19008KT P6SM
      -SHRA BKN035 OVC050=



000
FTUS43 KSGF 221700
TAFJLN
TAF
KJLN 221720Z 2218/2318 15010KT P6SM SCT050
     FM222300 14006KT P6SM SCT250
     FM231100 17006KT P6SM BKN100 PROB30 2312/2318 19008KT P6SM
      -SHRA BKN035 OVC050=



000
FTUS43 KSGF 221700
TAFSGF
TAF
KSGF 221720Z 2218/2318 16012KT P6SM SCT050
     FM222300 14007KT P6SM SCT250
     FM231200 17008KT P6SM BKN100=



000
FTUS43 KSGF 221100
TAFJLN
TAF
KJLN 221120Z 2212/2312 12007KT P6SM SCT040
     FM221800 15008KT P6SM SCT030 BKN250
     FM230000 14006KT P6SM BKN250=



000
FTUS43 KSGF 221100
TAFSGF
TAF
KSGF 221120Z 2212/2312 15012KT P6SM SKC
     FM221800 15008KT P6SM SCT050 BKN250=



    US Dept of Commerce
    National Oceanic and Atmospheric Administration
    National Weather Service
    1325 East West Highway
    Silver Spring, MD 20910
    Page Author: NWS Internet Services Team
Disclaimer
Information Quality
Credits
Glossary
Privacy Policy
Freedom of Information Act (FOIA)
About Us
Career Opportunities